createdAt,value
2022-12-23T00:01:03.700Z,12.30
2022-12-23T00:05:08.511Z,13.75
2022-12-23T00:10:08.177Z,15.02
2022-12-23T00:15:07.985Z,15.60
2022-12-23T00:20:07.775Z,13.68
2022-12-23T00:25:08.599Z,11.93
2022-12-23T00:30:08.397Z,17.77
2022-12-23T00:35:08.200Z,15.80
2022-12-23T00:40:08.032Z,12.98
2022-12-23T00:45:07.904Z,15.35
2022-12-23T00:50:08.696Z,11.10
2022-12-23T00:55:08.476Z,14.95
2022-12-23T01:00:08.244Z,13.18
2022-12-23T01:05:08.205Z,13.00
2022-12-23T01:10:08.051Z,13.90
2022-12-23T01:15:07.852Z,9.02
2022-12-23T01:20:08.694Z,17.13
2022-12-23T01:25:08.498Z,7.68
2022-12-23T01:30:08.274Z,9.57
2022-12-23T01:35:08.097Z,9.27
2022-12-23T01:40:07.947Z,13.18
2022-12-23T01:45:07.736Z,15.05
2022-12-23T01:50:08.570Z,10.88
2022-12-23T01:55:08.403Z,11.90
2022-12-23T02:00:08.263Z,10.85
2022-12-23T02:05:08.051Z,15.57
2022-12-23T02:10:07.882Z,7.97
2022-12-23T02:15:08.700Z,11.10
2022-12-23T02:20:08.536Z,8.65
2022-12-23T02:25:08.300Z,9.75
2022-12-23T02:30:08.091Z,9.38
2022-12-23T02:35:11.313Z,10.85
2022-12-23T02:40:08.160Z,10.57
2022-12-23T02:45:07.933Z,10.23
2022-12-23T02:50:08.730Z,8.95
2022-12-23T02:55:08.562Z,9.23
2022-12-23T03:00:08.414Z,9.80
2022-12-23T03:05:08.205Z,9.98
2022-12-23T03:10:08.018Z,7.78
2022-12-23T03:15:07.879Z,11.15
2022-12-23T03:20:18.713Z,0
2022-12-23T03:25:08.494Z,13.00
2022-12-23T03:30:08.329Z,9.40
2022-12-23T03:35:08.130Z,14.77
2022-12-23T03:40:07.963Z,16.20
2022-12-23T03:45:38.691Z,13.98
2022-12-23T03:50:07.998Z,15.75
2022-12-23T03:55:07.843Z,14.07
2022-12-23T04:00:08.623Z,15.65
2022-12-23T04:05:08.441Z,19.08
2022-12-23T04:10:08.249Z,13.20
2022-12-23T04:15:12.812Z,16.52
2022-12-23T04:20:08.007Z,12.00
2022-12-23T04:25:07.921Z,19.10
2022-12-23T04:30:08.827Z,17.00
2022-12-23T04:35:08.671Z,17.08
2022-12-23T04:40:08.566Z,19.98
2022-12-23T04:45:08.369Z,19.42
2022-12-23T04:50:08.192Z,15.02
2022-12-23T04:55:08.019Z,14.77
2022-12-23T05:00:07.820Z,14.30
2022-12-23T05:05:02.915Z,14.50
2022-12-23T05:10:03.055Z,13.95
2022-12-23T05:15:02.113Z,16.50
2022-12-23T05:20:02.153Z,14.40
2022-12-23T05:25:02.009Z,15.35
2022-12-23T05:30:02.136Z,17.85
2022-12-23T05:35:01.996Z,14.75
2022-12-23T05:40:01.933Z,15.38
2022-12-23T05:45:02.109Z,14.50
2022-12-23T05:50:02.044Z,14.82
2022-12-23T05:55:02.040Z,14.68
2022-12-23T06:00:02.007Z,13.70
2022-12-23T06:05:02.234Z,13.23
2022-12-23T06:10:02.179Z,16.42
2022-12-23T06:15:02.093Z,15.32
2022-12-23T06:20:02.085Z,14.52
2022-12-23T06:25:02.105Z,16.05
2022-12-23T06:30:01.979Z,14.13
2022-12-23T06:35:02.042Z,15.43
2022-12-23T06:40:01.953Z,16.67
2022-12-23T06:45:01.893Z,16.33
2022-12-23T06:50:02.926Z,17.35
2022-12-23T06:55:02.915Z,17.05
2022-12-23T07:00:02.815Z,15.07
2022-12-23T07:05:02.709Z,12.60
2022-12-23T07:10:02.629Z,11.25
2022-12-23T07:15:02.559Z,12.98
2022-12-23T07:20:02.494Z,14.20
2022-12-23T07:25:02.532Z,15.00
2022-12-23T07:30:02.540Z,13.25
2022-12-23T07:35:02.639Z,13.07
2022-12-23T07:40:08.327Z,13.95
2022-12-23T07:45:02.663Z,11.10
2022-12-23T07:50:02.943Z,10.82
2022-12-23T07:55:01.974Z,10.18
2022-12-23T08:00:02.171Z,12.20
2022-12-23T08:05:02.224Z,12.32
2022-12-23T08:10:02.124Z,12.32
2022-12-23T08:15:02.075Z,13.40
2022-12-23T08:20:02.244Z,10.88
2022-12-23T08:25:02.101Z,11.27
2022-12-23T08:30:01.993Z,11.52
2022-12-23T08:35:02.067Z,9.25
2022-12-23T08:40:02.034Z,13.43
2022-12-23T08:45:01.974Z,11.05
2022-12-23T08:50:01.853Z,9.60
2022-12-23T08:55:02.870Z,8.52
2022-12-23T09:00:02.874Z,9.48
2022-12-23T09:05:02.836Z,11.20
2022-12-23T09:10:02.717Z,9.70
2022-12-23T09:15:02.646Z,11.73
2022-12-23T09:20:02.617Z,10.63
2022-12-23T09:25:05.221Z,11.30
2022-12-23T09:30:02.425Z,13.40
2022-12-23T09:35:02.367Z,12.00
2022-12-23T09:40:02.417Z,12.18
2022-12-23T09:45:02.320Z,10.00
2022-12-23T09:50:02.200Z,11.95
2022-12-23T09:55:02.345Z,8.63
2022-12-23T10:00:02.314Z,9.45
2022-12-23T10:05:02.400Z,8.80
2022-12-23T10:10:02.505Z,8.40
2022-12-23T10:15:02.443Z,10.00
2022-12-23T10:20:02.489Z,8.52
2022-12-23T10:25:02.479Z,10.85
2022-12-23T10:30:26.668Z,9.90
2022-12-23T10:35:02.401Z,11.48
2022-12-23T10:40:02.391Z,13.77
2022-12-23T10:45:02.348Z,12.10
2022-12-23T10:50:02.254Z,13.40
2022-12-23T10:55:02.303Z,15.43
2022-12-23T11:00:02.256Z,15.77
2022-12-23T11:05:02.176Z,21.67
2022-12-23T11:10:02.253Z,21.55
2022-12-23T11:15:02.135Z,27.90
2022-12-23T11:20:02.050Z,25.33
2022-12-23T11:25:01.977Z,25.02
2022-12-23T11:30:02.220Z,23.23
2022-12-23T11:35:02.277Z,27.50
2022-12-23T11:40:02.300Z,30.10
2022-12-23T11:45:02.309Z,23.25
2022-12-23T11:50:02.296Z,20.65
2022-12-23T11:55:02.176Z,14.80
2022-12-23T12:00:02.151Z,17.05
2022-12-23T12:05:05.380Z,23.17
2022-12-23T12:10:02.358Z,14.00
2022-12-23T12:15:02.227Z,16.77
2022-12-23T12:20:02.336Z,18.10
2022-12-23T12:25:12.258Z,0
2022-12-23T12:30:08.038Z,17.33
2022-12-23T12:35:02.672Z,13.40
2022-12-23T12:40:02.608Z,17.98
2022-12-23T12:45:02.575Z,15.15
2022-12-23T12:50:02.685Z,12.85
2022-12-23T12:55:02.690Z,14.75
2022-12-23T13:00:06.377Z,15.18
2022-12-23T13:05:11.881Z,0
2022-12-23T13:10:02.881Z,19.15
2022-12-23T13:15:02.880Z,25.77
2022-12-23T13:20:02.980Z,29.02
2022-12-23T13:25:01.946Z,21.48
2022-12-23T13:30:03.578Z,16.67
2022-12-23T13:35:02.595Z,15.20
2022-12-23T13:40:02.616Z,15.38
2022-12-23T13:45:02.550Z,14.38
2022-12-23T13:50:02.493Z,11.93
2022-12-23T13:55:02.507Z,16.70
2022-12-23T14:00:05.943Z,12.43
2022-12-23T14:05:02.531Z,11.02
2022-12-23T14:10:02.489Z,16.60
2022-12-23T14:15:02.480Z,16.17
2022-12-23T14:20:02.399Z,9.77
2022-12-23T14:25:12.240Z,0
2022-12-23T14:30:06.041Z,11.68
2022-12-23T14:35:02.425Z,11.65
2022-12-23T14:40:03.032Z,13.05
2022-12-23T14:45:02.327Z,14.85
2022-12-23T14:50:02.981Z,12.30
2022-12-23T14:55:29.120Z,11.00
2022-12-23T15:00:02.516Z,12.30
2022-12-23T15:05:05.919Z,15.85
2022-12-23T15:10:08.327Z,11.85
2022-12-23T15:15:04.619Z,11.85
2022-12-23T15:20:03.958Z,8.52
2022-12-23T15:25:03.325Z,10.55
2022-12-23T15:30:03.383Z,13.82
2022-12-23T15:35:20.407Z,10.13
2022-12-23T15:40:13.785Z,11.25
2022-12-23T15:45:16.497Z,8.45
2022-12-23T15:50:06.264Z,7.68
2022-12-23T15:55:03.200Z,10.23
2022-12-23T16:00:03.396Z,7.55
2022-12-23T16:05:09.160Z,10.80
2022-12-23T16:10:03.249Z,9.15
2022-12-23T16:15:04.143Z,18.35
2022-12-23T16:20:04.411Z,14.35
2022-12-23T16:25:04.253Z,15.20
2022-12-23T16:30:02.784Z,13.65
2022-12-23T16:35:05.236Z,9.75
2022-12-23T16:40:02.593Z,9.48
2022-12-23T16:45:03.313Z,16.00
2022-12-23T16:50:03.448Z,10.48
2022-12-23T16:55:07.848Z,8.95
2022-12-23T17:00:13.346Z,8.45
2022-12-23T17:05:09.006Z,10.05
2022-12-23T17:10:13.196Z,10.27
2022-12-23T17:15:08.270Z,11.80
2022-12-23T17:20:13.015Z,13.13
2022-12-23T17:25:22.919Z,10.23
2022-12-23T17:30:06.227Z,9.00
2022-12-23T17:35:15.121Z,12.18
2022-12-23T17:40:03.349Z,10.40
2022-12-23T17:45:10.316Z,12.90
2022-12-23T17:50:03.577Z,12.32
2022-12-23T17:55:04.429Z,12.35
2022-12-23T18:00:02.801Z,11.20
2022-12-23T18:05:03.666Z,15.60
2022-12-23T18:10:03.622Z,11.60
2022-12-23T18:15:03.288Z,14.00
2022-12-23T18:20:02.530Z,13.73
2022-12-23T18:25:03.150Z,13.60
2022-12-23T18:30:02.734Z,16.60
2022-12-23T18:35:03.116Z,16.17
2022-12-23T18:40:02.330Z,12.40
2022-12-23T18:45:02.667Z,14.45
2022-12-23T18:50:03.079Z,18.85
2022-12-23T18:55:02.313Z,22.23
2022-12-23T19:00:02.804Z,19.42
2022-12-23T19:05:03.367Z,23.48
2022-12-23T19:10:02.842Z,16.45
2022-12-23T19:15:04.855Z,14.73
2022-12-23T19:20:02.885Z,15.75
2022-12-23T19:25:06.305Z,22.10
2022-12-23T19:30:03.050Z,23.08
2022-12-23T19:35:02.397Z,21.38
2022-12-23T19:40:02.736Z,21.60
2022-12-23T19:45:02.678Z,21.45
2022-12-23T19:50:02.882Z,25.08
2022-12-23T19:55:02.933Z,21.08
2022-12-23T20:00:03.695Z,15.50
2022-12-23T20:05:03.435Z,22.20
2022-12-23T20:10:09.267Z,18.55
2022-12-23T20:15:02.285Z,22.98
2022-12-23T20:20:07.148Z,20.48
2022-12-23T20:25:03.068Z,26.63
2022-12-23T20:30:02.221Z,24.80
2022-12-23T20:35:02.445Z,30.10
2022-12-23T20:40:02.474Z,23.92
2022-12-23T20:45:02.849Z,24.77
2022-12-23T20:50:04.091Z,23.52
2022-12-23T20:55:02.723Z,19.10
2022-12-23T21:00:03.221Z,23.50
2022-12-23T21:05:03.248Z,16.20
2022-12-23T21:10:03.441Z,25.65
2022-12-23T21:15:03.105Z,25.10
2022-12-23T21:20:07.490Z,19.05
2022-12-23T21:25:05.369Z,15.77
2022-12-23T21:30:04.508Z,17.55
2022-12-23T21:35:03.850Z,9.50
2022-12-23T21:40:03.681Z,10.32
2022-12-23T21:45:03.269Z,7.22
2022-12-23T21:50:02.670Z,10.75
2022-12-23T21:55:03.141Z,11.73
2022-12-23T22:00:02.395Z,18.23
2022-12-23T22:05:15.168Z,12.13
2022-12-23T22:10:07.991Z,14.18
2022-12-23T22:15:11.547Z,14.15
2022-12-23T22:20:08.731Z,15.25
2022-12-23T22:25:08.530Z,15.05
2022-12-23T22:30:08.353Z,14.48
2022-12-23T22:35:08.151Z,13.02
2022-12-23T22:40:07.917Z,17.88
2022-12-23T22:45:08.717Z,20.02
2022-12-23T22:50:08.665Z,25.77
2022-12-23T22:55:08.495Z,16.73
2022-12-23T23:00:12.483Z,18.20
2022-12-23T23:05:12.883Z,13.48
2022-12-23T23:10:08.160Z,17.58
2022-12-23T23:15:07.952Z,17.13
2022-12-23T23:20:07.754Z,21.73
2022-12-23T23:25:08.570Z,20.15
2022-12-23T23:30:08.373Z,19.48
2022-12-23T23:35:10.884Z,19.35
2022-12-23T23:40:07.986Z,20.65
2022-12-23T23:45:07.824Z,17.88
2022-12-23T23:50:08.643Z,17.13
2022-12-23T23:55:08.441Z,12.85
